sensor_id;sensor_type;location;lat;lon;timestamp;P1;durP1;ratioP1;P2;durP2;ratioP2
7426;SDS011;3755;59.316;18.092;2024-02-21T00:00:15;5.50;;;3.60;;
7426;SDS011;3755;59.316;18.092;2024-02-21T00:02:43;5.00;;;3.33;;
7426;SDS011;3755;59.316;18.092;2024-02-21T00:05:11;6.40;;;4.10;;
7426;SDS011;3755;59.316;18.092;2024-02-21T00:07:38;5.40;;;3.53;;
7426;SDS011;3755;59.316;18.092;2024-02-21T00:10:06;5.60;;;4.20;;
7426;SDS011;3755;59.316;18.092;2024-02-21T00:12:34;6.30;;;3.73;;
7426;SDS011;3755;59.316;18.092;2024-02-21T00:15:01;7.17;;;4.10;;
7426;SDS011;3755;59.316;18.092;2024-02-21T00:17:28;7.73;;;4.13;;
7426;SDS011;3755;59.316;18.092;2024-02-21T00:19:55;6.97;;;4.43;;
7426;SDS011;3755;59.316;18.092;2024-02-21T00:22:23;8.50;;;4.30;;
7426;SDS011;3755;59.316;18.092;2024-02-21T00:24:53;5.97;;;4.47;;
7426;SDS011;3755;59.316;18.092;2024-02-21T00:27:20;5.73;;;3.70;;
7426;SDS011;3755;59.316;18.092;2024-02-21T00:29:47;7.53;;;4.47;;
7426;SDS011;3755;59.316;18.092;2024-02-21T00:32:15;6.37;;;4.20;;
7426;SDS011;3755;59.316;18.092;2024-02-21T00:34:42;7.80;;;4.67;;
7426;SDS011;3755;59.316;18.092;2024-02-21T00:37:09;6.23;;;4.50;;
7426;SDS011;3755;59.316;18.092;2024-02-21T00:39:38;6.17;;;4.43;;
7426;SDS011;3755;59.316;18.092;2024-02-21T00:42:05;8.47;;;4.80;;
7426;SDS011;3755;59.316;18.092;2024-02-21T00:44:32;6.43;;;4.37;;
7426;SDS011;3755;59.316;18.092;2024-02-21T00:46:59;6.93;;;4.33;;
7426;SDS011;3755;59.316;18.092;2024-02-21T00:49:26;6.77;;;4.13;;
7426;SDS011;3755;59.316;18.092;2024-02-21T00:51:54;7.27;;;4.27;;
7426;SDS011;3755;59.316;18.092;2024-02-21T00:54:21;5.77;;;3.33;;
7426;SDS011;3755;59.316;18.092;2024-02-21T00:56:50;5.93;;;3.60;;
7426;SDS011;3755;59.316;18.092;2024-02-21T00:59:17;4.27;;;3.20;;
7426;SDS011;3755;59.316;18.092;2024-02-21T01:01:44;4.63;;;3.47;;
7426;SDS011;3755;59.316;18.092;2024-02-21T01:04:11;5.33;;;3.17;;
7426;SDS011;3755;59.316;18.092;2024-02-21T01:06:38;4.63;;;2.87;;
7426;SDS011;3755;59.316;18.092;2024-02-21T01:09:08;5.07;;;3.50;;
7426;SDS011;3755;59.316;18.092;2024-02-21T01:11:35;6.50;;;3.20;;
7426;SDS011;3755;59.316;18.092;2024-02-21T01:14:03;5.13;;;3.47;;
7426;SDS011;3755;59.316;18.092;2024-02-21T01:16:30;4.87;;;2.83;;
7426;SDS011;3755;59.316;18.092;2024-02-21T01:18:57;4.73;;;2.97;;
7426;SDS011;3755;59.316;18.092;2024-02-21T01:21:24;4.67;;;3.20;;
7426;SDS011;3755;59.316;18.092;2024-02-21T01:23:51;5.77;;;3.27;;
7426;SDS011;3755;59.316;18.092;2024-02-21T01:26:18;6.83;;;3.40;;
7426;SDS011;3755;59.316;18.092;2024-02-21T01:28:45;9.20;;;3.87;;
7426;SDS011;3755;59.316;18.092;2024-02-21T01:31:14;6.27;;;3.80;;
7426;SDS011;3755;59.316;18.092;2024-02-21T01:33:41;5.30;;;3.43;;
7426;SDS011;3755;59.316;18.092;2024-02-21T01:36:08;8.67;;;3.70;;
7426;SDS011;3755;59.316;18.092;2024-02-21T01:38:35;8.87;;;3.93;;
7426;SDS011;3755;59.316;18.092;2024-02-21T01:41:02;13.40;;;4.00;;
7426;SDS011;3755;59.316;18.092;2024-02-21T01:43:29;10.40;;;4.53;;
7426;SDS011;3755;59.316;18.092;2024-02-21T01:45:56;10.57;;;3.90;;
7426;SDS011;3755;59.316;18.092;2024-02-21T01:48:25;9.97;;;4.30;;
7426;SDS011;3755;59.316;18.092;2024-02-21T01:50:53;14.13;;;4.20;;
7426;SDS011;3755;59.316;18.092;2024-02-21T01:53:21;9.57;;;4.63;;
7426;SDS011;3755;59.316;18.092;2024-02-21T01:55:51;7.87;;;4.23;;
7426;SDS011;3755;59.316;18.092;2024-02-21T01:58:20;10.20;;;4.87;;
7426;SDS011;3755;59.316;18.092;2024-02-21T02:00:48;13.63;;;5.13;;
7426;SDS011;3755;59.316;18.092;2024-02-21T02:03:16;10.17;;;5.40;;
7426;SDS011;3755;59.316;18.092;2024-02-21T02:05:45;10.43;;;4.70;;
7426;SDS011;3755;59.316;18.092;2024-02-21T02:08:13;13.80;;;5.60;;
7426;SDS011;3755;59.316;18.092;2024-02-21T02:10:40;10.23;;;5.50;;
7426;SDS011;3755;59.316;18.092;2024-02-21T02:13:08;9.77;;;4.97;;
7426;SDS011;3755;59.316;18.092;2024-02-21T02:15:39;10.70;;;5.33;;
7426;SDS011;3755;59.316;18.092;2024-02-21T02:18:06;10.67;;;5.50;;
7426;SDS011;3755;59.316;18.092;2024-02-21T02:20:35;11.17;;;5.53;;
7426;SDS011;3755;59.316;18.092;2024-02-21T02:23:05;12.57;;;5.87;;
7426;SDS011;3755;59.316;18.092;2024-02-21T02:25:36;10.23;;;5.87;;
7426;SDS011;3755;59.316;18.092;2024-02-21T02:28:03;11.30;;;5.73;;
7426;SDS011;3755;59.316;18.092;2024-02-21T02:30:31;11.53;;;5.50;;
7426;SDS011;3755;59.316;18.092;2024-02-21T02:32:59;16.47;;;6.63;;
7426;SDS011;3755;59.316;18.092;2024-02-21T02:35:26;13.63;;;5.60;;
7426;SDS011;3755;59.316;18.092;2024-02-21T02:37:53;10.77;;;6.10;;
7426;SDS011;3755;59.316;18.092;2024-02-21T02:40:20;14.07;;;6.70;;
7426;SDS011;3755;59.316;18.092;2024-02-21T02:42:49;13.43;;;6.97;;
7426;SDS011;3755;59.316;18.092;2024-02-21T02:45:16;11.57;;;6.13;;
7426;SDS011;3755;59.316;18.092;2024-02-21T02:47:44;15.23;;;6.37;;
7426;SDS011;3755;59.316;18.092;2024-02-21T02:50:12;11.60;;;6.10;;
7426;SDS011;3755;59.316;18.092;2024-02-21T02:52:39;12.33;;;6.33;;
7426;SDS011;3755;59.316;18.092;2024-02-21T02:55:06;13.27;;;6.97;;
7426;SDS011;3755;59.316;18.092;2024-02-21T02:57:34;10.03;;;5.83;;
7426;SDS011;3755;59.316;18.092;2024-02-21T03:00:02;11.50;;;6.13;;
7426;SDS011;3755;59.316;18.092;2024-02-21T03:02:31;9.53;;;5.33;;
7426;SDS011;3755;59.316;18.092;2024-02-21T03:04:58;9.00;;;5.07;;
7426;SDS011;3755;59.316;18.092;2024-02-21T03:07:25;9.03;;;5.07;;
7426;SDS011;3755;59.316;18.092;2024-02-21T03:09:52;8.83;;;4.90;;
7426;SDS011;3755;59.316;18.092;2024-02-21T03:12:19;7.53;;;4.33;;
7426;SDS011;3755;59.316;18.092;2024-02-21T03:14:52;9.50;;;5.30;;
7426;SDS011;3755;59.316;18.092;2024-02-21T03:17:21;7.43;;;4.60;;
7426;SDS011;3755;59.316;18.092;2024-02-21T03:19:48;6.90;;;4.30;;
7426;SDS011;3755;59.316;18.092;2024-02-21T03:22:15;8.30;;;4.30;;
7426;SDS011;3755;59.316;18.092;2024-02-21T03:24:42;6.63;;;3.87;;
7426;SDS011;3755;59.316;18.092;2024-02-21T03:27:09;7.90;;;4.43;;
7426;SDS011;3755;59.316;18.092;2024-02-21T03:29:36;6.37;;;3.97;;
7426;SDS011;3755;59.316;18.092;2024-02-21T03:32:03;4.47;;;2.87;;
7426;SDS011;3755;59.316;18.092;2024-02-21T03:34:32;7.13;;;3.63;;
7426;SDS011;3755;59.316;18.092;2024-02-21T03:36:59;6.97;;;3.40;;
7426;SDS011;3755;59.316;18.092;2024-02-21T03:39:26;4.30;;;2.90;;
7426;SDS011;3755;59.316;18.092;2024-02-21T03:41:53;3.40;;;2.50;;
7426;SDS011;3755;59.316;18.092;2024-02-21T03:44:20;6.10;;;3.23;;
7426;SDS011;3755;59.316;18.092;2024-02-21T03:46:47;3.70;;;2.40;;
7426;SDS011;3755;59.316;18.092;2024-02-21T03:49:14;4.53;;;2.30;;
7426;SDS011;3755;59.316;18.092;2024-02-21T03:51:42;2.70;;;2.00;;
7426;SDS011;3755;59.316;18.092;2024-02-21T03:54:09;3.10;;;2.20;;
7426;SDS011;3755;59.316;18.092;2024-02-21T03:56:37;2.47;;;1.87;;
7426;SDS011;3755;59.316;18.092;2024-02-21T03:59:05;2.63;;;2.17;;
7426;SDS011;3755;59.316;18.092;2024-02-21T04:01:33;2.23;;;1.83;;
7426;SDS011;3755;59.316;18.092;2024-02-21T04:04:00;3.93;;;2.00;;
7426;SDS011;3755;59.316;18.092;2024-02-21T04:06:27;4.27;;;2.10;;
7426;SDS011;3755;59.316;18.092;2024-02-21T04:08:56;3.53;;;1.90;;
7426;SDS011;3755;59.316;18.092;2024-02-21T04:11:23;3.63;;;2.17;;
7426;SDS011;3755;59.316;18.092;2024-02-21T04:13:50;4.90;;;2.40;;
7426;SDS011;3755;59.316;18.092;2024-02-21T04:16:17;3.90;;;2.37;;
7426;SDS011;3755;59.316;18.092;2024-02-21T04:18:44;4.77;;;1.93;;
7426;SDS011;3755;59.316;18.092;2024-02-21T04:21:14;3.13;;;1.97;;
7426;SDS011;3755;59.316;18.092;2024-02-21T04:23:41;3.20;;;2.20;;
7426;SDS011;3755;59.316;18.092;2024-02-21T04:26:10;2.70;;;2.10;;
7426;SDS011;3755;59.316;18.092;2024-02-21T04:28:37;4.43;;;2.40;;
7426;SDS011;3755;59.316;18.092;2024-02-21T04:31:04;4.13;;;2.23;;
7426;SDS011;3755;59.316;18.092;2024-02-21T04:33:31;4.53;;;2.10;;
7426;SDS011;3755;59.316;18.092;2024-02-21T04:35:58;4.87;;;2.10;;
7426;SDS011;3755;59.316;18.092;2024-02-21T04:38:26;7.00;;;2.17;;
7426;SDS011;3755;59.316;18.092;2024-02-21T04:40:53;2.73;;;2.10;;
7426;SDS011;3755;59.316;18.092;2024-02-21T04:43:24;3.00;;;2.00;;
7426;SDS011;3755;59.316;18.092;2024-02-21T04:45:51;3.60;;;2.03;;
7426;SDS011;3755;59.316;18.092;2024-02-21T04:48:19;5.30;;;2.10;;
7426;SDS011;3755;59.316;18.092;2024-02-21T04:50:46;3.40;;;2.00;;
7426;SDS011;3755;59.316;18.092;2024-02-21T04:53:13;3.87;;;2.20;;
7426;SDS011;3755;59.316;18.092;2024-02-21T04:55:41;5.60;;;3.00;;
7426;SDS011;3755;59.316;18.092;2024-02-21T04:58:08;5.47;;;2.60;;
7426;SDS011;3755;59.316;18.092;2024-02-21T05:00:36;4.80;;;2.70;;
7426;SDS011;3755;59.316;18.092;2024-02-21T05:03:04;5.33;;;2.70;;
7426;SDS011;3755;59.316;18.092;2024-02-21T05:05:31;5.33;;;2.70;;
7426;SDS011;3755;59.316;18.092;2024-02-21T05:07:58;5.93;;;2.93;;
7426;SDS011;3755;59.316;18.092;2024-02-21T05:10:25;7.10;;;2.63;;
7426;SDS011;3755;59.316;18.092;2024-02-21T05:12:52;7.17;;;2.93;;
7426;SDS011;3755;59.316;18.092;2024-02-21T05:15:19;3.73;;;2.80;;
7426;SDS011;3755;59.316;18.092;2024-02-21T05:17:47;7.63;;;2.77;;
7426;SDS011;3755;59.316;18.092;2024-02-21T05:20:14;5.03;;;2.97;;
7426;SDS011;3755;59.316;18.092;2024-02-21T05:22:42;3.77;;;2.60;;
7426;SDS011;3755;59.316;18.092;2024-02-21T05:25:09;7.13;;;2.77;;
7426;SDS011;3755;59.316;18.092;2024-02-21T05:27:36;7.57;;;2.70;;
7426;SDS011;3755;59.316;18.092;2024-02-21T05:30:04;5.37;;;2.67;;
7426;SDS011;3755;59.316;18.092;2024-02-21T05:32:32;6.33;;;2.70;;
7426;SDS011;3755;59.316;18.092;2024-02-21T05:35:01;6.20;;;2.50;;
7426;SDS011;3755;59.316;18.092;2024-02-21T05:37:28;7.77;;;2.70;;
7426;SDS011;3755;59.316;18.092;2024-02-21T05:39:55;5.13;;;2.50;;
7426;SDS011;3755;59.316;18.092;2024-02-21T05:42:22;6.43;;;2.80;;
7426;SDS011;3755;59.316;18.092;2024-02-21T05:44:49;6.47;;;2.77;;
7426;SDS011;3755;59.316;18.092;2024-02-21T05:47:16;5.60;;;2.87;;
7426;SDS011;3755;59.316;18.092;2024-02-21T05:49:45;6.53;;;3.23;;
7426;SDS011;3755;59.316;18.092;2024-02-21T05:52:14;6.63;;;3.03;;
7426;SDS011;3755;59.316;18.092;2024-02-21T05:54:41;9.67;;;3.17;;
7426;SDS011;3755;59.316;18.092;2024-02-21T05:57:08;8.00;;;3.23;;
7426;SDS011;3755;59.316;18.092;2024-02-21T05:59:37;7.17;;;3.20;;
7426;SDS011;3755;59.316;18.092;2024-02-21T06:02:07;9.40;;;3.80;;
7426;SDS011;3755;59.316;18.092;2024-02-21T06:04:34;6.87;;;3.97;;
7426;SDS011;3755;59.316;18.092;2024-02-21T06:07:01;9.40;;;3.70;;
7426;SDS011;3755;59.316;18.092;2024-02-21T06:09:29;10.93;;;4.03;;
7426;SDS011;3755;59.316;18.092;2024-02-21T06:11:57;8.83;;;3.80;;
7426;SDS011;3755;59.316;18.092;2024-02-21T06:14:24;8.87;;;3.97;;
7426;SDS011;3755;59.316;18.092;2024-02-21T06:16:51;9.97;;;4.73;;
7426;SDS011;3755;59.316;18.092;2024-02-21T06:19:18;11.40;;;4.43;;
7426;SDS011;3755;59.316;18.092;2024-02-21T06:21:45;9.27;;;4.20;;
7426;SDS011;3755;59.316;18.092;2024-02-21T06:24:12;9.73;;;4.40;;
7426;SDS011;3755;59.316;18.092;2024-02-21T06:26:41;10.57;;;4.47;;
7426;SDS011;3755;59.316;18.092;2024-02-21T06:29:08;8.37;;;4.80;;
7426;SDS011;3755;59.316;18.092;2024-02-21T06:31:36;9.00;;;5.03;;
7426;SDS011;3755;59.316;18.092;2024-02-21T06:34:03;7.07;;;4.17;;
7426;SDS011;3755;59.316;18.092;2024-02-21T06:36:30;9.37;;;5.17;;
7426;SDS011;3755;59.316;18.092;2024-02-21T06:38:58;9.90;;;4.80;;
7426;SDS011;3755;59.316;18.092;2024-02-21T06:41:25;10.60;;;5.27;;
7426;SDS011;3755;59.316;18.092;2024-02-21T06:43:53;8.33;;;5.03;;
7426;SDS011;3755;59.316;18.092;2024-02-21T06:46:24;11.53;;;5.40;;
7426;SDS011;3755;59.316;18.092;2024-02-21T06:48:52;11.63;;;5.40;;
7426;SDS011;3755;59.316;18.092;2024-02-21T06:51:21;10.00;;;5.10;;
7426;SDS011;3755;59.316;18.092;2024-02-21T06:53:48;10.37;;;4.67;;
7426;SDS011;3755;59.316;18.092;2024-02-21T06:56:16;12.17;;;5.87;;
7426;SDS011;3755;59.316;18.092;2024-02-21T06:58:43;12.43;;;5.30;;
7426;SDS011;3755;59.316;18.092;2024-02-21T07:01:11;11.90;;;4.90;;
7426;SDS011;3755;59.316;18.092;2024-02-21T07:03:38;12.10;;;5.83;;
7426;SDS011;3755;59.316;18.092;2024-02-21T07:06:05;9.30;;;4.93;;
7426;SDS011;3755;59.316;18.092;2024-02-21T07:08:33;10.67;;;5.50;;
7426;SDS011;3755;59.316;18.092;2024-02-21T07:11:01;13.87;;;5.70;;
7426;SDS011;3755;59.316;18.092;2024-02-21T07:13:28;11.80;;;6.03;;
7426;SDS011;3755;59.316;18.092;2024-02-21T07:15:55;17.30;;;6.47;;
7426;SDS011;3755;59.316;18.092;2024-02-21T07:18:24;8.37;;;5.37;;
7426;SDS011;3755;59.316;18.092;2024-02-21T07:20:52;14.20;;;5.50;;
7426;SDS011;3755;59.316;18.092;2024-02-21T07:23:19;11.37;;;5.87;;
7426;SDS011;3755;59.316;18.092;2024-02-21T07:25:46;12.90;;;5.80;;
7426;SDS011;3755;59.316;18.092;2024-02-21T07:28:13;13.63;;;6.53;;
7426;SDS011;3755;59.316;18.092;2024-02-21T07:30:41;13.00;;;6.03;;
7426;SDS011;3755;59.316;18.092;2024-02-21T07:33:09;13.67;;;6.60;;
7426;SDS011;3755;59.316;18.092;2024-02-21T07:35:37;11.90;;;6.37;;
7426;SDS011;3755;59.316;18.092;2024-02-21T07:38:06;11.10;;;6.27;;
7426;SDS011;3755;59.316;18.092;2024-02-21T07:40:37;12.90;;;5.80;;
7426;SDS011;3755;59.316;18.092;2024-02-21T07:43:04;15.20;;;6.47;;
7426;SDS011;3755;59.316;18.092;2024-02-21T07:45:32;12.27;;;6.30;;
7426;SDS011;3755;59.316;18.092;2024-02-21T07:47:59;12.87;;;6.60;;
7426;SDS011;3755;59.316;18.092;2024-02-21T07:50:27;14.23;;;6.27;;
7426;SDS011;3755;59.316;18.092;2024-02-21T07:52:55;11.50;;;6.10;;
7426;SDS011;3755;59.316;18.092;2024-02-21T07:55:23;13.37;;;5.80;;
7426;SDS011;3755;59.316;18.092;2024-02-21T07:57:50;15.13;;;6.80;;
7426;SDS011;3755;59.316;18.092;2024-02-21T08:00:18;30.30;;;7.03;;
7426;SDS011;3755;59.316;18.092;2024-02-21T08:02:48;13.63;;;5.93;;
7426;SDS011;3755;59.316;18.092;2024-02-21T08:05:15;9.43;;;5.23;;
7426;SDS011;3755;59.316;18.092;2024-02-21T08:07:42;14.40;;;5.70;;
7426;SDS011;3755;59.316;18.092;2024-02-21T08:10:11;15.57;;;6.27;;
7426;SDS011;3755;59.316;18.092;2024-02-21T08:12:38;13.37;;;6.20;;
7426;SDS011;3755;59.316;18.092;2024-02-21T08:15:07;12.80;;;5.60;;
7426;SDS011;3755;59.316;18.092;2024-02-21T08:17:35;13.83;;;6.07;;
7426;SDS011;3755;59.316;18.092;2024-02-21T08:20:03;16.80;;;5.50;;
7426;SDS011;3755;59.316;18.092;2024-02-21T08:22:30;12.10;;;4.90;;
7426;SDS011;3755;59.316;18.092;2024-02-21T08:24:58;11.70;;;5.47;;
7426;SDS011;3755;59.316;18.092;2024-02-21T08:27:27;14.80;;;5.77;;
7426;SDS011;3755;59.316;18.092;2024-02-21T08:29:55;14.60;;;5.43;;
7426;SDS011;3755;59.316;18.092;2024-02-21T08:32:22;18.47;;;5.57;;
7426;SDS011;3755;59.316;18.092;2024-02-21T08:34:49;11.80;;;5.30;;
7426;SDS011;3755;59.316;18.092;2024-02-21T08:37:16;15.73;;;5.27;;
7426;SDS011;3755;59.316;18.092;2024-02-21T08:39:44;16.80;;;5.27;;
7426;SDS011;3755;59.316;18.092;2024-02-21T08:42:11;13.20;;;4.63;;
7426;SDS011;3755;59.316;18.092;2024-02-21T08:44:40;12.20;;;4.70;;
7426;SDS011;3755;59.316;18.092;2024-02-21T08:47:08;10.43;;;4.70;;
7426;SDS011;3755;59.316;18.092;2024-02-21T08:49:36;17.83;;;5.07;;
7426;SDS011;3755;59.316;18.092;2024-02-21T08:52:03;10.33;;;4.53;;
7426;SDS011;3755;59.316;18.092;2024-02-21T08:54:31;12.50;;;4.93;;
7426;SDS011;3755;59.316;18.092;2024-02-21T08:56:59;12.73;;;4.40;;
7426;SDS011;3755;59.316;18.092;2024-02-21T08:59:26;11.80;;;4.60;;
7426;SDS011;3755;59.316;18.092;2024-02-21T09:01:55;13.53;;;5.33;;
7426;SDS011;3755;59.316;18.092;2024-02-21T09:04:23;12.63;;;4.33;;
7426;SDS011;3755;59.316;18.092;2024-02-21T09:06:50;13.73;;;5.17;;
7426;SDS011;3755;59.316;18.092;2024-02-21T09:09:17;13.77;;;4.93;;
7426;SDS011;3755;59.316;18.092;2024-02-21T09:11:45;12.73;;;5.07;;
7426;SDS011;3755;59.316;18.092;2024-02-21T09:14:12;13.23;;;4.60;;
7426;SDS011;3755;59.316;18.092;2024-02-21T09:16:39;8.87;;;4.30;;
7426;SDS011;3755;59.316;18.092;2024-02-21T09:19:08;11.70;;;4.80;;
7426;SDS011;3755;59.316;18.092;2024-02-21T09:21:36;12.90;;;4.60;;
7426;SDS011;3755;59.316;18.092;2024-02-21T09:24:03;11.70;;;5.23;;
7426;SDS011;3755;59.316;18.092;2024-02-21T09:26:32;10.37;;;4.30;;
7426;SDS011;3755;59.316;18.092;2024-02-21T09:28:59;12.00;;;4.30;;
7426;SDS011;3755;59.316;18.092;2024-02-21T09:31:27;13.67;;;4.90;;
7426;SDS011;3755;59.316;18.092;2024-02-21T09:33:54;12.03;;;4.53;;
7426;SDS011;3755;59.316;18.092;2024-02-21T09:36:24;8.80;;;4.17;;
7426;SDS011;3755;59.316;18.092;2024-02-21T09:38:51;9.83;;;4.50;;
7426;SDS011;3755;59.316;18.092;2024-02-21T09:41:22;15.33;;;5.00;;
7426;SDS011;3755;59.316;18.092;2024-02-21T09:43:52;10.33;;;4.80;;
7426;SDS011;3755;59.316;18.092;2024-02-21T09:46:21;9.63;;;4.80;;
7426;SDS011;3755;59.316;18.092;2024-02-21T09:49:04;11.07;;;4.37;;
7426;SDS011;3755;59.316;18.092;2024-02-21T09:51:38;8.30;;;3.40;;
7426;SDS011;3755;59.316;18.092;2024-02-21T09:54:08;8.73;;;4.03;;
7426;SDS011;3755;59.316;18.092;2024-02-21T09:56:35;9.00;;;3.60;;
7426;SDS011;3755;59.316;18.092;2024-02-21T09:59:02;5.30;;;3.73;;
7426;SDS011;3755;59.316;18.092;2024-02-21T10:01:31;6.00;;;3.50;;
7426;SDS011;3755;59.316;18.092;2024-02-21T10:03:58;7.70;;;3.73;;
7426;SDS011;3755;59.316;18.092;2024-02-21T10:06:25;6.53;;;3.20;;
7426;SDS011;3755;59.316;18.092;2024-02-21T10:08:54;10.30;;;3.23;;
7426;SDS011;3755;59.316;18.092;2024-02-21T10:11:24;7.97;;;3.63;;
7426;SDS011;3755;59.316;18.092;2024-02-21T10:13:51;5.77;;;3.00;;
7426;SDS011;3755;59.316;18.092;2024-02-21T10:16:30;7.67;;;3.33;;
7426;SDS011;3755;59.316;18.092;2024-02-21T10:18:57;8.37;;;3.30;;
7426;SDS011;3755;59.316;18.092;2024-02-21T10:21:24;8.50;;;3.43;;
7426;SDS011;3755;59.316;18.092;2024-02-21T10:23:51;5.03;;;2.80;;
7426;SDS011;3755;59.316;18.092;2024-02-21T10:26:20;6.30;;;2.97;;
7426;SDS011;3755;59.316;18.092;2024-02-21T10:28:47;8.13;;;3.30;;
7426;SDS011;3755;59.316;18.092;2024-02-21T10:31:23;5.00;;;3.00;;
7426;SDS011;3755;59.316;18.092;2024-02-21T10:33:54;5.43;;;3.23;;
7426;SDS011;3755;59.316;18.092;2024-02-21T10:36:22;4.67;;;2.93;;
7426;SDS011;3755;59.316;18.092;2024-02-21T10:38:49;4.33;;;2.60;;
7426;SDS011;3755;59.316;18.092;2024-02-21T10:41:19;6.20;;;3.13;;
7426;SDS011;3755;59.316;18.092;2024-02-21T10:43:49;5.90;;;2.77;;
7426;SDS011;3755;59.316;18.092;2024-02-21T10:46:18;6.13;;;2.93;;
7426;SDS011;3755;59.316;18.092;2024-02-21T10:48:47;5.93;;;2.77;;
7426;SDS011;3755;59.316;18.092;2024-02-21T10:51:24;5.53;;;3.20;;
7426;SDS011;3755;59.316;18.092;2024-02-21T10:53:57;5.00;;;3.60;;
7426;SDS011;3755;59.316;18.092;2024-02-21T10:56:31;6.93;;;3.47;;
7426;SDS011;3755;59.316;18.092;2024-02-21T10:59:01;6.43;;;2.93;;
7426;SDS011;3755;59.316;18.092;2024-02-21T11:01:30;4.83;;;3.23;;
7426;SDS011;3755;59.316;18.092;2024-02-21T11:03:59;5.07;;;3.20;;
7426;SDS011;3755;59.316;18.092;2024-02-21T11:06:29;5.87;;;3.07;;
7426;SDS011;3755;59.316;18.092;2024-02-21T11:09:00;5.87;;;3.57;;
7426;SDS011;3755;59.316;18.092;2024-02-21T11:11:29;6.17;;;3.43;;
7426;SDS011;3755;59.316;18.092;2024-02-21T11:14:06;5.00;;;3.17;;
7426;SDS011;3755;59.316;18.092;2024-02-21T11:16:37;6.67;;;3.67;;
7426;SDS011;3755;59.316;18.092;2024-02-21T11:19:05;8.90;;;3.77;;
7426;SDS011;3755;59.316;18.092;2024-02-21T11:21:33;6.23;;;3.40;;
7426;SDS011;3755;59.316;18.092;2024-02-21T11:24:01;6.87;;;3.03;;
7426;SDS011;3755;59.316;18.092;2024-02-21T11:26:29;5.13;;;3.70;;
7426;SDS011;3755;59.316;18.092;2024-02-21T11:29:00;7.40;;;4.07;;
7426;SDS011;3755;59.316;18.092;2024-02-21T11:31:38;6.47;;;3.60;;
7426;SDS011;3755;59.316;18.092;2024-02-21T11:34:08;6.43;;;3.20;;
7426;SDS011;3755;59.316;18.092;2024-02-21T11:36:35;8.10;;;3.40;;
7426;SDS011;3755;59.316;18.092;2024-02-21T11:39:03;8.73;;;4.00;;
7426;SDS011;3755;59.316;18.092;2024-02-21T11:41:32;5.20;;;3.40;;
7426;SDS011;3755;59.316;18.092;2024-02-21T11:43:59;9.17;;;3.77;;
7426;SDS011;3755;59.316;18.092;2024-02-21T11:46:27;8.17;;;4.93;;
7426;SDS011;3755;59.316;18.092;2024-02-21T11:48:55;7.97;;;4.30;;
7426;SDS011;3755;59.316;18.092;2024-02-21T11:51:25;8.27;;;4.10;;
7426;SDS011;3755;59.316;18.092;2024-02-21T11:53:52;6.60;;;4.20;;
7426;SDS011;3755;59.316;18.092;2024-02-21T11:56:20;6.10;;;3.73;;
7426;SDS011;3755;59.316;18.092;2024-02-21T11:58:49;6.37;;;4.27;;
7426;SDS011;3755;59.316;18.092;2024-02-21T12:01:16;8.80;;;4.03;;
7426;SDS011;3755;59.316;18.092;2024-02-21T12:03:44;7.10;;;4.10;;
7426;SDS011;3755;59.316;18.092;2024-02-21T12:06:15;8.00;;;3.70;;
7426;SDS011;3755;59.316;18.092;2024-02-21T12:08:46;6.90;;;4.00;;
7426;SDS011;3755;59.316;18.092;2024-02-21T12:11:18;7.17;;;4.47;;
7426;SDS011;3755;59.316;18.092;2024-02-21T12:13:46;7.67;;;4.73;;
7426;SDS011;3755;59.316;18.092;2024-02-21T12:16:16;6.13;;;3.80;;
7426;SDS011;3755;59.316;18.092;2024-02-21T12:18:44;7.43;;;4.13;;
7426;SDS011;3755;59.316;18.092;2024-02-21T12:21:11;7.07;;;3.87;;
7426;SDS011;3755;59.316;18.092;2024-02-21T12:23:38;7.17;;;4.23;;
7426;SDS011;3755;59.316;18.092;2024-02-21T12:26:05;5.90;;;3.80;;
7426;SDS011;3755;59.316;18.092;2024-02-21T12:28:33;5.30;;;3.60;;
7426;SDS011;3755;59.316;18.092;2024-02-21T12:31:00;8.87;;;5.03;;
7426;SDS011;3755;59.316;18.092;2024-02-21T12:33:31;8.37;;;4.53;;
7426;SDS011;3755;59.316;18.092;2024-02-21T12:35:58;7.17;;;3.70;;
7426;SDS011;3755;59.316;18.092;2024-02-21T12:38:26;6.53;;;3.97;;
7426;SDS011;3755;59.316;18.092;2024-02-21T12:40:53;8.07;;;3.97;;
7426;SDS011;3755;59.316;18.092;2024-02-21T12:43:22;7.17;;;4.30;;
7426;SDS011;3755;59.316;18.092;2024-02-21T12:45:50;6.23;;;4.03;;
7426;SDS011;3755;59.316;18.092;2024-02-21T12:48:17;7.33;;;4.53;;
7426;SDS011;3755;59.316;18.092;2024-02-21T12:50:47;8.93;;;4.07;;
7426;SDS011;3755;59.316;18.092;2024-02-21T12:53:16;8.73;;;4.00;;
7426;SDS011;3755;59.316;18.092;2024-02-21T12:55:44;7.47;;;4.23;;
7426;SDS011;3755;59.316;18.092;2024-02-21T12:58:11;6.13;;;4.00;;
7426;SDS011;3755;59.316;18.092;2024-02-21T13:00:40;9.50;;;4.37;;
7426;SDS011;3755;59.316;18.092;2024-02-21T13:03:07;6.90;;;4.17;;
7426;SDS011;3755;59.316;18.092;2024-02-21T13:05:36;6.33;;;3.70;;
7426;SDS011;3755;59.316;18.092;2024-02-21T13:08:05;6.80;;;4.33;;
7426;SDS011;3755;59.316;18.092;2024-02-21T13:10:33;6.80;;;4.37;;
7426;SDS011;3755;59.316;18.092;2024-02-21T13:13:00;6.07;;;3.87;;
7426;SDS011;3755;59.316;18.092;2024-02-21T13:15:28;5.47;;;3.57;;
7426;SDS011;3755;59.316;18.092;2024-02-21T13:17:56;6.67;;;4.07;;
7426;SDS011;3755;59.316;18.092;2024-02-21T13:20:24;6.70;;;3.90;;
7426;SDS011;3755;59.316;18.092;2024-02-21T13:22:53;6.53;;;4.20;;
7426;SDS011;3755;59.316;18.092;2024-02-21T13:25:22;7.90;;;4.03;;
7426;SDS011;3755;59.316;18.092;2024-02-21T13:27:49;6.10;;;4.30;;
7426;SDS011;3755;59.316;18.092;2024-02-21T13:30:16;6.57;;;4.20;;
7426;SDS011;3755;59.316;18.092;2024-02-21T13:32:44;7.20;;;4.10;;
7426;SDS011;3755;59.316;18.092;2024-02-21T13:35:12;6.43;;;4.30;;
7426;SDS011;3755;59.316;18.092;2024-02-21T13:37:40;6.70;;;4.07;;
7426;SDS011;3755;59.316;18.092;2024-02-21T13:40:08;5.40;;;3.63;;
7426;SDS011;3755;59.316;18.092;2024-02-21T13:42:37;8.03;;;3.90;;
7426;SDS011;3755;59.316;18.092;2024-02-21T13:45:05;8.17;;;4.03;;
7426;SDS011;3755;59.316;18.092;2024-02-21T13:47:33;6.80;;;4.20;;
7426;SDS011;3755;59.316;18.092;2024-02-21T13:50:01;8.03;;;4.17;;
7426;SDS011;3755;59.316;18.092;2024-02-21T13:52:29;6.97;;;3.83;;
7426;SDS011;3755;59.316;18.092;2024-02-21T13:54:56;7.80;;;4.20;;
7426;SDS011;3755;59.316;18.092;2024-02-21T13:57:25;7.40;;;3.73;;
7426;SDS011;3755;59.316;18.092;2024-02-21T13:59:54;6.77;;;4.53;;
7426;SDS011;3755;59.316;18.092;2024-02-21T14:02:21;7.27;;;4.63;;
7426;SDS011;3755;59.316;18.092;2024-02-21T14:04:48;7.07;;;4.50;;
7426;SDS011;3755;59.316;18.092;2024-02-21T14:07:16;7.97;;;3.97;;
7426;SDS011;3755;59.316;18.092;2024-02-21T14:09:43;7.47;;;4.33;;
7426;SDS011;3755;59.316;18.092;2024-02-21T14:12:10;8.53;;;5.13;;
7426;SDS011;3755;59.316;18.092;2024-02-21T14:14:38;7.00;;;4.70;;
7426;SDS011;3755;59.316;18.092;2024-02-21T14:17:08;11.47;;;4.70;;
7426;SDS011;3755;59.316;18.092;2024-02-21T14:19:35;9.47;;;5.10;;
7426;SDS011;3755;59.316;18.092;2024-02-21T14:22:02;8.03;;;5.00;;
7426;SDS011;3755;59.316;18.092;2024-02-21T14:24:29;7.53;;;4.80;;
7426;SDS011;3755;59.316;18.092;2024-02-21T14:26:56;8.37;;;4.87;;
7426;SDS011;3755;59.316;18.092;2024-02-21T14:29:28;6.50;;;4.33;;
7426;SDS011;3755;59.316;18.092;2024-02-21T14:31:56;8.87;;;5.63;;
7426;SDS011;3755;59.316;18.092;2024-02-21T14:34:24;10.97;;;5.60;;
7426;SDS011;3755;59.316;18.092;2024-02-21T14:36:52;9.00;;;4.97;;
7426;SDS011;3755;59.316;18.092;2024-02-21T14:39:19;8.33;;;5.50;;
7426;SDS011;3755;59.316;18.092;2024-02-21T14:41:46;9.73;;;5.97;;
7426;SDS011;3755;59.316;18.092;2024-02-21T14:44:14;9.80;;;5.67;;
7426;SDS011;3755;59.316;18.092;2024-02-21T14:46:41;9.40;;;5.80;;
7426;SDS011;3755;59.316;18.092;2024-02-21T14:49:10;10.83;;;5.70;;
7426;SDS011;3755;59.316;18.092;2024-02-21T14:51:40;7.33;;;4.90;;
7426;SDS011;3755;59.316;18.092;2024-02-21T14:54:12;9.47;;;5.37;;
7426;SDS011;3755;59.316;18.092;2024-02-21T14:56:39;11.13;;;5.97;;
7426;SDS011;3755;59.316;18.092;2024-02-21T14:59:07;7.27;;;5.20;;
7426;SDS011;3755;59.316;18.092;2024-02-21T15:01:35;8.53;;;4.87;;